Time;durP1;ratioP1;P1;durP2;ratioP2;P2;SDS_P1;SDS_P2;PMS_P1;PMS_P2;Temp;Humidity;BMP_temperature;BMP_pressure;BME280_temperature;BME280_humidity;BME280_pressure;Samples;Min_cycle;Max_cycle;Signal;HPM_P1;HPM_P2
2022/11/27 00:00:56;;;;;;;;;16.75;15.75;;;;;7.69;77.84;102139.84;5079786;27;46443;-48
2022/11/27 00:03:21;;;;;;;;;18.50;14.25;;;;;7.68;78.04;102135.50;5079820;28;45305;-43
2022/11/27 00:05:53;;;;;;;;;23.00;18.75;;;;;7.73;77.34;102136.06;5079526;27;45449;-44
2022/11/27 00:08:18;;;;;;;;;13.00;13.00;;;;;7.74;77.72;102135.09;5080082;27;45335;-45
2022/11/27 00:10:43;;;;;;;;;20.25;14.50;;;;;7.77;77.55;102134.06;5079364;27;46026;-43
2022/11/27 00:13:09;;;;;;;;;24.50;18.00;;;;;7.80;77.67;102139.19;5079597;27;45440;-44
2022/11/27 00:15:34;;;;;;;;;16.75;12.00;;;;;7.82;77.71;102136.44;5079810;27;45485;-44
2022/11/27 00:17:59;;;;;;;;;17.75;13.50;;;;;7.79;77.32;102139.28;5079989;27;45399;-44
2022/11/27 00:20:25;;;;;;;;;18.50;13.25;;;;;7.71;77.18;102121.19;5079592;27;45327;-43
2022/11/27 00:22:50;;;;;;;;;21.25;16.75;;;;;7.62;77.67;102113.81;5079597;27;45252;-47
2022/11/27 00:25:16;;;;;;;;;18.00;14.75;;;;;7.67;77.18;102112.63;5079792;27;45356;-47
2022/11/27 00:27:41;;;;;;;;;21.25;12.75;;;;;7.70;77.30;102119.50;5080063;27;45603;-44
2022/11/27 00:30:07;;;;;;;;;23.50;15.50;;;;;7.63;77.12;102111.09;5079393;27;46151;-50
2022/11/27 00:32:32;;;;;;;;;15.00;15.00;;;;;7.62;76.77;102114.66;5079587;27;45498;-44
2022/11/27 00:34:57;;;;;;;;;25.00;12.50;;;;;7.63;77.66;102102.31;5079599;27;45364;-46
2022/11/27 00:37:23;;;;;;;;;17.25;15.00;;;;;7.67;77.32;102098.53;5079672;27;45419;-43
2022/11/27 00:39:48;;;;;;;;;19.75;17.00;;;;;7.69;77.64;102092.16;5079848;27;46298;-44
2022/11/27 00:42:13;;;;;;;;;23.75;19.50;;;;;7.68;77.34;102093.13;5079858;27;45428;-44
2022/11/27 00:44:39;;;;;;;;;18.75;16.00;;;;;7.71;77.76;102090.28;5079875;27;45340;-45
2022/11/27 00:47:04;;;;;;;;;14.00;12.75;;;;;7.72;77.04;102080.53;5079388;27;45557;-47
2022/11/27 00:49:31;;;;;;;;;23.25;19.25;;;;;7.73;77.29;102085.72;5078960;27;45463;-44
2022/11/27 00:51:56;;;;;;;;;25.00;17.50;;;;;7.73;76.45;102084.88;5079343;27;45405;-47
2022/11/27 00:54:21;;;;;;;;;17.50;15.00;;;;;7.72;77.31;102083.19;5078925;27;45370;-45
2022/11/27 00:56:47;;;;;;;;;27.50;16.75;;;;;7.71;76.70;102078.81;5079260;27;45322;-45
2022/11/27 00:59:12;;;;;;;;;19.75;12.75;;;;;7.60;76.40;102062.75;5078203;27;45447;-51
2022/11/27 01:01:41;;;;;;;;;15.50;14.75;;;;;7.66;77.64;102073.81;5078430;27;45367;-46
2022/11/27 01:04:10;;;;;;;;;9.75;8.25;;;;;7.67;76.72;102069.38;5078947;27;45503;-45
2022/11/27 01:06:36;;;;;;;;;15.00;15.00;;;;;7.60;76.81;102054.81;5079028;27;45318;-44
2022/11/27 01:09:02;;;;;;;;;20.50;12.75;;;;;7.62;77.78;102056.41;5078496;27;47190;-48
2022/11/27 01:11:30;;;;;;;;;13.25;13.25;;;;;7.62;77.16;102061.69;5078819;27;45393;-44
2022/11/27 01:13:58;;;;;;;;;12.00;12.00;;;;;7.64;77.72;102064.28;5078626;27;45242;-47
2022/11/27 01:16:26;;;;;;;;;13.75;13.25;;;;;7.64;77.44;102053.69;5078865;27;45375;-45
2022/11/27 01:18:54;;;;;;;;;21.75;13.75;;;;;7.61;77.75;102057.34;5078478;27;45494;-47
2022/11/27 01:21:20;;;;;;;;;19.50;14.50;;;;;7.63;76.87;102062.59;5078585;28;45314;-46
2022/11/27 01:23:47;;;;;;;;;12.00;12.00;;;;;7.66;77.45;102049.97;5078706;27;45382;-46
2022/11/27 01:26:14;;;;;;;;;9.25;9.00;;;;;7.64;77.73;102051.88;5078700;27;45177;-46
2022/11/27 01:28:40;;;;;;;;;17.75;12.50;;;;;7.53;77.28;102035.78;5078124;27;46277;-48
2022/11/27 01:31:12;;;;;;;;;14.00;12.25;;;;;7.58;76.71;102070.78;5078282;27;45379;-44
2022/11/27 01:33:37;;;;;;;;;24.25;16.00;;;;;7.62;77.37;102058.19;5078600;27;45185;-48
2022/11/27 01:36:05;;;;;;;;;15.75;14.00;;;;;7.62;77.25;102048.47;5078707;27;45265;-44
2022/11/27 01:38:31;;;;;;;;;14.25;13.25;;;;;7.52;76.77;102033.25;5078380;28;46353;-44
2022/11/27 01:40:58;;;;;;;;;13.25;11.75;;;;;7.55;77.41;102033.06;5078409;27;45743;-45
2022/11/27 01:43:45;;;;;;;;;17.75;14.00;;;;;7.60;76.71;102038.94;5078453;27;45371;-53
2022/11/27 01:46:15;;;;;;;;;13.50;13.50;;;;;7.61;77.28;102028.22;5078313;27;45395;-44
2022/11/27 01:48:41;;;;;;;;;16.00;12.75;;;;;7.63;76.72;102022.84;5078131;27;45450;-44
2022/11/27 01:51:06;;;;;;;;;12.25;11.50;;;;;7.66;77.52;102028.78;5078009;27;45408;-45
2022/11/27 01:53:33;;;;;;;;;15.25;12.00;;;;;7.64;77.10;102030.69;5078392;27;45360;-43
2022/11/27 01:56:00;;;;;;;;;15.50;12.00;;;;;7.64;77.04;102033.34;5078581;27;45419;-44
2022/11/27 01:58:28;;;;;;;;;12.50;9.75;;;;;7.66;76.85;102027.94;5077774;27;47073;-45
2022/11/27 02:00:54;;;;;;;;;16.25;12.50;;;;;7.66;77.20;102023.47;5078126;27;45287;-50
2022/11/27 02:03:19;;;;;;;;;14.50;13.00;;;;;7.59;76.72;102003.66;5078086;27;45911;-46
2022/11/27 02:05:45;;;;;;;;;13.25;11.25;;;;;7.63;76.99;102015.75;5078389;27;45475;-45
2022/11/27 02:08:13;;;;;;;;;17.75;15.75;;;;;7.65;77.22;102013.00;5077668;27;46237;-47
2022/11/27 02:10:52;;;;;;;;;20.75;10.00;;;;;7.62;77.22;102003.44;5077757;27;45898;-48
2022/11/27 02:13:28;;;;;;;;;19.75;12.50;;;;;7.64;76.63;102006.00;5077936;27;45287;-50
2022/11/27 02:16:27;;;;;;;;;11.50;9.00;;;;;7.64;76.76;102011.31;5078089;27;45484;-45
2022/11/27 02:18:55;;;;;;;;;13.50;11.00;;;;;7.64;77.29;102009.50;5077393;27;46113;-48
2022/11/27 02:21:56;;;;;;;;;14.50;10.25;;;;;7.63;77.78;102010.47;5077738;27;45366;-43
2022/11/27 02:24:55;;;;;;;;;16.25;13.00;;;;;7.64;77.25;102017.44;5077515;28;45429;-43
2022/11/27 02:27:39;;;;;;;;;13.50;11.25;;;;;7.69;77.47;102010.06;5078009;27;45322;-44
2022/11/27 02:30:06;;;;;;;;;15.50;10.75;;;;;7.70;77.55;102014.41;5077533;27;45573;-46
2022/11/27 02:32:38;;;;;;;;;11.25;9.50;;;;;7.68;76.73;102013.66;5077571;27;45332;-45
2022/11/27 02:35:17;;;;;;;;;17.25;11.50;;;;;7.71;77.41;102009.94;5077693;27;45317;-45
2022/11/27 02:38:04;;;;;;;;;18.00;12.25;;;;;7.74;76.84;102002.66;5077791;27;45446;-49
2022/11/27 02:40:41;;;;;;;;;11.50;11.50;;;;;7.74;76.54;102010.63;5077360;28;45387;-45
2022/11/27 02:43:22;;;;;;;;;20.00;10.00;;;;;7.75;77.16;102008.81;5077464;27;45499;-51
2022/11/27 02:45:50;;;;;;;;;15.25;11.00;;;;;7.77;77.27;102000.78;5077671;27;45258;-50
2022/11/27 02:48:21;;;;;;;;;12.50;10.00;;;;;7.77;76.80;101998.13;5077769;27;45324;-50
2022/11/27 02:50:49;;;;;;;;;18.50;10.00;;;;;7.77;77.21;102001.63;5077299;27;45408;-48
2022/11/27 02:53:23;;;;;;;;;17.50;11.25;;;;;7.73;77.44;101997.47;5077279;28;45230;-52
2022/11/27 02:55:52;;;;;;;;;10.00;10.00;;;;;7.62;76.84;101973.47;5077472;27;45444;-54
2022/11/27 02:58:21;;;;;;;;;14.50;10.00;;;;;7.72;77.35;101980.75;5077418;27;45390;-53
2022/11/27 03:00:49;;;;;;;;;14.50;9.75;;;;;7.71;76.40;101971.09;5077345;27;47099;-51
2022/11/27 03:03:20;;;;;;;;;12.00;11.00;;;;;7.70;76.32;101969.38;5077305;27;45207;-51
2022/11/27 03:05:50;;;;;;;;;12.50;9.00;;;;;7.68;76.76;101960.69;5077154;27;45314;-52
2022/11/27 03:08:23;;;;;;;;;10.50;9.00;;;;;7.67;77.24;101953.69;5077604;27;45465;-50
2022/11/27 03:11:04;;;;;;;;;16.25;7.00;;;;;7.60;77.09;101946.25;5076967;27;47705;-52
2022/11/27 03:13:34;;;;;;;;;12.00;8.33;;;;;7.64;76.77;101950.41;5076772;27;45314;-51
2022/11/27 03:16:30;;;;;;;;;9.75;9.75;;;;;7.60;77.18;101941.78;5076828;27;45393;-53
2022/11/27 03:19:15;;;;;;;;;9.25;8.25;;;;;7.62;76.67;101944.31;5076977;27;45562;-52
2022/11/27 03:21:52;;;;;;;;;11.50;9.75;;;;;7.60;76.77;101954.19;5076518;28;46256;-48
2022/11/27 03:24:18;;;;;;;;;12.00;9.25;;;;;7.61;76.96;101946.13;5079590;27;45449;-50
2022/11/27 03:26:43;;;;;;;;;12.25;11.25;;;;;7.60;77.57;101946.25;5079263;27;45426;-51
2022/11/27 03:29:17;;;;;;;;;9.00;7.50;;;;;7.55;77.10;101938.59;5080628;27;45420;-51
2022/11/27 03:31:43;;;;;;;;;13.25;9.50;;;;;7.60;77.32;101933.84;5080405;27;46444;-50
2022/11/27 03:34:08;;;;;;;;;9.25;6.50;;;;;7.56;76.80;101924.41;5080271;27;45335;-54
2022/11/27 03:36:33;;;;;;;;;8.75;8.50;;;;;7.58;78.03;101924.28;5080596;27;45376;-48
2022/11/27 03:38:59;;;;;;;;;9.00;7.50;;;;;7.53;77.99;101919.28;5080728;27;45340;-50
2022/11/27 03:41:57;;;;;;;;;18.25;9.00;;;;;7.53;77.20;101924.59;5079003;27;46924;-50
2022/11/27 03:44:28;;;;;;;;;11.25;10.50;;;;;7.50;76.97;101903.63;5080126;27;45240;-50
2022/11/27 03:47:31;;;;;;;;;9.50;8.25;;;;;7.54;77.64;101922.78;5080117;27;45374;-51
2022/11/27 03:50:24;;;;;;;;;13.75;9.25;;;;;7.46;77.88;101891.53;5080220;27;45227;-52
2022/11/27 03:52:54;;;;;;;;;14.50;8.75;;;;;7.53;77.96;101913.16;5080000;27;45330;-53
2022/11/27 03:55:54;;;;;;;;;11.75;7.75;;;;;7.49;77.56;101905.41;5079848;27;45318;-52
2022/11/27 03:58:33;;;;;;;;;9.00;8.75;;;;;7.55;77.71;101898.88;5037031;28;45463;-47
2022/11/27 04:01:01;;;;;;;;;12.50;8.50;;;;;7.49;76.81;101880.72;5037406;28;45507;-48
2022/11/27 04:03:29;;;;;;;;;9.00;6.00;;;;;7.54;78.17;101894.50;5037367;28;46222;-50
2022/11/27 04:05:55;;;;;;;;;9.50;8.50;;;;;7.54;77.28;101896.31;5037162;28;45230;-51
2022/11/27 04:08:21;;;;;;;;;9.33;6.67;;;;;7.55;77.81;101892.72;5037255;28;45189;-51
2022/11/27 04:10:46;;;;;;;;;14.25;9.50;;;;;7.53;77.83;101898.09;5037569;28;45467;-53
2022/11/27 04:13:12;;;;;;;;;10.75;7.75;;;;;7.54;77.32;101885.72;5020484;28;47296;-50
2022/11/27 04:15:37;;;;;;;;;13.75;9.75;;;;;7.53;77.62;101899.91;5037567;28;45631;-47
2022/11/27 04:18:03;;;;;;;;;12.75;10.75;;;;;7.54;77.32;101906.91;5037187;28;45417;-48
2022/11/27 04:20:28;;;;;;;;;11.25;8.75;;;;;7.51;77.52;101894.72;5037580;28;45435;-50
2022/11/27 04:22:54;;;;;;;;;13.25;9.25;;;;;7.52;77.47;101896.41;5037873;28;46152;-53
2022/11/27 04:25:20;;;;;;;;;11.00;7.00;;;;;7.42;77.98;101877.63;5037858;28;45495;-50
2022/11/27 04:27:46;;;;;;;;;6.50;5.25;;;;;7.52;78.08;101888.47;5038208;28;45410;-48
2022/11/27 04:30:12;;;;;;;;;11.50;6.00;;;;;7.50;77.70;101900.97;5038164;28;45375;-50
2022/11/27 04:32:37;;;;;;;;;10.75;6.00;;;;;7.47;77.93;101877.34;5037559;28;45535;-48
2022/11/27 04:35:03;;;;;;;;;10.50;6.50;;;;;7.50;78.58;101874.50;5064779;28;45395;-51
2022/11/27 04:37:29;;;;;;;;;9.75;6.00;;;;;7.47;78.36;101869.41;5079957;27;45456;-51
2022/11/27 04:39:54;;;;;;;;;9.00;6.50;;;;;7.45;78.35;101865.97;5080181;27;45245;-52
2022/11/27 04:42:19;;;;;;;;;8.25;6.25;;;;;7.49;78.64;101868.31;5079918;27;46190;-49
2022/11/27 04:44:45;;;;;;;;;10.75;6.00;;;;;7.48;78.68;101860.50;5080117;27;45689;-51
2022/11/27 04:47:10;;;;;;;;;8.25;8.00;;;;;7.52;78.36;101869.94;5079993;27;45282;-52
2022/11/27 04:49:35;;;;;;;;;5.75;5.75;;;;;7.50;78.63;101872.69;5080036;27;45159;-50
2022/11/27 04:52:01;;;;;;;;;10.00;9.25;;;;;7.52;78.41;101869.09;5079781;27;45303;-49
2022/11/27 04:54:26;;;;;;;;;6.00;6.00;;;;;7.54;77.51;101846.84;5112641;27;45317;-49
2022/11/27 04:56:51;;;;;;;;;15.75;9.25;;;;;7.54;77.36;101843.34;5079540;27;45362;-50
2022/11/27 04:59:17;;;;;;;;;6.75;6.00;;;;;7.50;77.96;101835.63;5079492;27;45437;-49
2022/11/27 05:01:42;;;;;;;;;11.25;8.00;;;;;7.50;78.28;101832.13;5079184;27;46101;-51
2022/11/27 05:04:07;;;;;;;;;8.50;4.00;;;;;7.49;77.63;101833.06;5079505;27;45470;-52
2022/11/27 05:06:33;;;;;;;;;8.50;5.75;;;;;7.55;77.97;101842.44;5079307;27;45366;-53
2022/11/27 05:09:00;;;;;;;;;10.50;8.75;;;;;7.55;77.38;101832.69;5079362;28;45259;-51
2022/11/27 05:11:29;;;;;;;;;9.00;7.00;;;;;7.56;77.48;101826.44;5079058;27;45501;-49
2022/11/27 05:14:14;;;;;;;;;12.00;8.00;;;;;7.56;78.10;101841.47;5078988;27;45553;-52
2022/11/27 05:16:51;;;;;;;;;9.25;6.75;;;;;7.57;78.17;101825.47;5078969;27;45229;-51
2022/11/27 05:19:18;;;;;;;;;6.50;5.00;;;;;7.56;77.52;101815.00;5079073;27;45354;-50
2022/11/27 05:21:45;;;;;;;;;9.00;8.00;;;;;7.49;78.04;101807.44;5078871;27;46189;-51
2022/11/27 05:24:11;;;;;;;;;12.00;5.75;;;;;7.47;78.71;101809.34;5078682;28;45430;-48
2022/11/27 05:26:38;;;;;;;;;8.00;6.00;;;;;7.52;77.74;101810.84;5078726;27;45480;-47
2022/11/27 05:29:04;;;;;;;;;6.00;6.00;;;;;7.51;77.99;101823.22;5079081;27;45202;-50
2022/11/27 05:31:29;;;;;;;;;8.50;7.50;;;;;7.49;78.11;101799.50;5078377;27;46300;-50
2022/11/27 05:33:55;;;;;;;;;9.00;6.00;;;;;7.49;78.60;101811.88;5078851;27;45305;-51
2022/11/27 05:36:20;;;;;;;;;7.00;7.00;;;;;7.51;78.11;101812.66;5078859;27;45642;-49
2022/11/27 05:38:46;;;;;;;;;17.50;10.00;;;;;7.52;78.12;101816.97;5078851;27;45311;-49
2022/11/27 05:41:11;;;;;;;;;10.75;9.25;;;;;7.49;78.38;101818.03;5078370;27;47135;-50
2022/11/27 05:43:36;;;;;;;;;10.50;8.25;;;;;7.49;77.36;101815.38;5078396;27;45373;-52
2022/11/27 05:46:06;;;;;;;;;9.25;8.00;;;;;7.40;78.11;101800.09;5077728;27;45354;-49
2022/11/27 05:48:32;;;;;;;;;7.50;5.00;;;;;7.48;77.77;101808.38;5078658;27;45530;-49
2022/11/27 05:50:57;;;;;;;;;7.00;5.50;;;;;7.48;77.61;101797.78;5078154;27;46720;-48
2022/11/27 05:53:23;;;;;;;;;9.00;7.00;;;;;7.49;77.73;101803.94;5077621;27;45370;-45
2022/11/27 05:55:48;;;;;;;;;12.50;7.00;;;;;7.51;77.98;101802.06;5078600;27;45308;-49
2022/11/27 05:58:14;;;;;;;;;9.50;6.50;;;;;7.51;78.22;101796.75;5078553;27;45520;-47
2022/11/27 06:00:39;;;;;;;;;10.25;4.50;;;;;7.49;77.88;101799.50;5078070;27;46053;-47
2022/11/27 06:03:04;;;;;;;;;5.75;5.75;;;;;7.47;78.95;101790.81;5078240;27;45223;-44
2022/11/27 06:05:30;;;;;;;;;7.00;6.00;;;;;7.48;78.02;101808.38;5078379;27;45776;-44
2022/11/27 06:07:55;;;;;;;;;9.25;8.25;;;;;7.53;79.01;101816.03;5078476;27;45383;-45
2022/11/27 06:10:20;;;;;;;;;9.00;6.50;;;;;7.54;79.07;101803.63;5077995;27;46126;-44
2022/11/27 06:12:46;;;;;;;;;9.75;8.25;;;;;7.52;79.36;101806.38;5078016;27;45227;-51
2022/11/27 06:15:11;;;;;;;;;10.25;9.00;;;;;7.48;78.93;101789.00;5078078;27;45440;-45
2022/11/27 06:17:36;;;;;;;;;6.00;5.00;;;;;7.56;78.61;101801.75;5078440;27;45285;-48
2022/11/27 06:20:02;;;;;;;;;11.00;8.50;;;;;7.54;78.61;101793.88;5077448;27;45634;-47
2022/11/27 06:22:27;;;;;;;;;10.50;5.50;;;;;7.55;78.18;101786.81;5078217;27;45552;-47
2022/11/27 06:24:53;;;;;;;;;15.50;8.50;;;;;7.54;78.38;101793.88;5077898;27;45707;-51
2022/11/27 06:27:18;;;;;;;;;8.50;7.25;;;;;7.53;78.93;101786.06;5078099;27;45424;-44
2022/11/27 06:29:43;;;;;;;;;5.00;4.50;;;;;7.55;79.16;101790.31;5077604;27;45377;-43
2022/11/27 06:32:09;;;;;;;;;10.75;8.00;;;;;7.55;78.63;101792.13;5077682;27;45453;-45
2022/11/27 06:34:34;;;;;;;;;13.75;10.00;;;;;7.56;78.93;101796.44;5077733;27;45413;-45
2022/11/27 06:36:59;;;;;;;;;11.75;9.25;;;;;7.58;79.07;101797.19;5077910;27;45348;-46
2022/11/27 06:39:25;;;;;;;;;9.75;8.75;;;;;7.61;78.75;101774.00;5076992;27;45972;-44
2022/11/27 06:41:50;;;;;;;;;10.75;8.50;;;;;7.59;79.17;101765.31;5077670;27;45354;-44
2022/11/27 06:44:15;;;;;;;;;9.75;8.25;;;;;7.55;79.08;101753.25;5077635;27;45358;-49
2022/11/27 06:46:41;;;;;;;;;13.25;9.25;;;;;7.47;78.87;101740.50;5077479;27;45410;-51
2022/11/27 06:49:06;;;;;;;;;10.00;6.00;;;;;7.50;79.09;101761.50;5077402;27;45380;-52
2022/11/27 06:51:32;;;;;;;;;12.33;8.00;;;;;7.50;78.56;101758.84;5077548;27;45261;-45
2022/11/27 06:54:01;;;;;;;;;13.75;8.00;;;;;7.54;78.62;101755.97;5077621;27;45547;-47
2022/11/27 06:56:28;;;;;;;;;12.00;6.00;;;;;7.60;78.62;101761.72;5077648;27;45378;-44
2022/11/27 06:58:58;;;;;;;;;9.50;9.50;;;;;7.62;78.48;101756.31;5076317;27;46161;-49
2022/11/27 07:01:26;;;;;;;;;12.50;7.75;;;;;7.61;78.36;101758.13;5077293;27;45477;-47
2022/11/27 07:03:51;;;;;;;;;8.50;8.00;;;;;7.61;78.43;101760.75;5076044;28;45381;-44
2022/11/27 07:06:19;;;;;;;;;13.75;9.75;;;;;7.63;78.50;101744.78;5077611;27;45453;-44
2022/11/27 07:08:45;;;;;;;;;10.25;8.00;;;;;7.64;79.28;101747.31;5077094;27;46037;-47
2022/11/27 07:11:19;;;;;;;;;13.50;9.50;;;;;7.66;78.24;101747.22;5077088;28;45314;-45
2022/11/27 07:13:46;;;;;;;;;11.50;9.00;;;;;7.67;78.87;101746.28;5077325;27;45373;-52
2022/11/27 07:16:12;;;;;;;;;9.00;8.50;;;;;7.67;78.11;101735.69;5077130;27;45502;-51
2022/11/27 07:18:40;;;;;;;;;10.00;8.25;;;;;7.70;78.39;101738.09;5076762;27;46009;-50
2022/11/27 07:21:07;;;;;;;;;7.75;6.00;;;;;7.67;78.98;101725.94;5077114;27;45164;-46
2022/11/27 07:23:32;;;;;;;;;12.50;8.75;;;;;7.66;79.03;101726.88;5077015;27;45501;-44
2022/11/27 07:25:58;;;;;;;;;8.50;8.50;;;;;7.70;78.98;101727.50;5077266;27;45379;-45
2022/11/27 07:28:24;;;;;;;;;9.75;9.25;;;;;7.70;78.62;101731.00;5076908;27;45361;-45
2022/11/27 07:30:57;;;;;;;;;2.00;2.00;;;;;7.71;78.80;101726.56;5076442;27;45479;-46
2022/11/27 07:33:23;;;;;;;;;17.75;13.75;;;;;7.70;78.58;101732.81;5077079;27;45294;-52
2022/11/27 07:35:49;;;;;;;;;13.00;7.00;;;;;7.68;79.00;101719.69;5077060;27;45299;-49
2022/11/27 07:38:14;;;;;;;;;15.50;10.00;;;;;7.65;79.36;101733.13;5076416;27;47174;-53
2022/11/27 07:40:40;;;;;;;;;15.00;8.75;;;;;7.69;78.70;101739.91;5077500;27;45331;-52
2022/11/27 07:43:05;;;;;;;;;10.50;9.00;;;;;7.76;78.04;101737.72;5077394;27;45259;-52
2022/11/27 07:45:31;;;;;;;;;13.50;10.00;;;;;7.73;78.67;101743.22;5076954;27;45437;-53
2022/11/27 07:47:56;;;;;;;;;10.00;9.00;;;;;7.71;79.17;101750.38;5076666;27;46519;-53
2022/11/27 07:50:21;;;;;;;;;15.50;8.00;;;;;7.60;78.91;101724.66;5075292;28;45331;-51
2022/11/27 07:52:47;;;;;;;;;15.50;11.75;;;;;7.71;79.12;101738.03;5076932;27;45560;-50
2022/11/27 07:55:12;;;;;;;;;9.25;8.75;;;;;7.74;79.74;101736.94;5076954;27;45347;-48
2022/11/27 07:57:38;;;;;;;;;11.00;9.00;;;;;7.74;80.03;101729.00;5075361;28;46276;-49
2022/11/27 08:00:04;;;;;;;;;7.25;7.25;;;;;7.67;80.02;101733.88;5076672;27;45369;-49
2022/11/27 08:02:30;;;;;;;;;8.00;8.00;;;;;7.73;79.35;101729.97;5076511;27;45350;-52
2022/11/27 08:04:55;;;;;;;;;9.25;6.00;;;;;7.78;79.74;101740.25;5075372;28;45448;-52
2022/11/27 08:07:26;;;;;;;;;14.75;9.50;;;;;7.78;79.57;101734.94;5076418;27;46347;-51
2022/11/27 08:09:51;;;;;;;;;12.75;7.00;;;;;7.81;79.86;101738.25;5078487;27;45418;-49
2022/11/27 08:12:16;;;;;;;;;9.67;6.67;;;;;7.79;79.77;101734.00;5079947;27;45373;-52
2022/11/27 08:14:42;;;;;;;;;11.75;9.25;;;;;7.75;80.42;101739.50;5080117;27;45294;-50
2022/11/27 08:17:11;;;;;;;;;8.50;8.50;;;;;7.79;79.62;101739.28;5079866;27;45386;-48
2022/11/27 08:19:37;;;;;;;;;12.75;10.50;;;;;7.85;80.41;101738.88;5079769;27;45245;-50
2022/11/27 08:22:02;;;;;;;;;11.50;9.25;;;;;7.88;79.61;101726.28;5080000;27;45316;-52
2022/11/27 08:24:27;;;;;;;;;15.75;10.00;;;;;7.85;79.51;101720.34;5080211;27;45423;-49
2022/11/27 08:26:53;;;;;;;;;13.75;10.00;;;;;7.84;79.65;101727.44;5079516;27;46083;-49
2022/11/27 08:29:18;;;;;;;;;12.25;8.75;;;;;7.87;79.67;101721.91;5079704;27;45377;-52
2022/11/27 08:31:43;;;;;;;;;11.50;9.25;;;;;7.86;79.56;101719.38;5079712;27;45467;-51
2022/11/27 08:34:09;;;;;;;;;11.50;11.50;;;;;7.86;80.29;101720.22;5079949;27;45480;-51
2022/11/27 08:36:34;;;;;;;;;17.75;12.50;;;;;7.90;80.16;101712.91;5079567;27;46320;-49
2022/11/27 08:38:59;;;;;;;;;15.25;12.50;;;;;7.90;79.80;101708.47;5079414;27;45378;-50
2022/11/27 08:41:25;;;;;;;;;9.33;9.00;;;;;7.95;80.47;101708.13;5079566;27;45806;-51
2022/11/27 08:43:50;;;;;;;;;19.50;12.75;;;;;7.96;79.96;101707.19;5079613;27;45374;-48
2022/11/27 08:46:15;;;;;;;;;15.00;12.00;;;;;7.95;80.09;101703.69;5079068;27;45448;-51
2022/11/27 08:48:41;;;;;;;;;9.50;9.25;;;;;7.97;79.49;101708.91;5079272;27;45320;-49
2022/11/27 08:51:12;;;;;;;;;8.50;8.50;;;;;7.97;79.61;101700.94;5079429;27;45456;-48
2022/11/27 08:53:38;;;;;;;;;18.25;11.00;;;;;7.99;80.17;101696.38;5079401;27;45412;-46
2022/11/27 08:56:10;;;;;;;;;11.00;8.50;;;;;8.03;80.70;101695.22;5078929;27;46238;-50
2022/11/27 08:58:35;;;;;;;;;17.00;10.00;;;;;8.05;79.98;101676.53;5078919;27;45355;-49
2022/11/27 09:01:22;;;;;;;;;14.25;11.50;;;;;8.05;80.67;101676.53;5079049;27;45430;-49
2022/11/27 09:03:48;;;;;;;;;8.33;8.00;;;;;8.05;79.62;101674.78;5079517;27;45366;-49
2022/11/27 09:06:17;;;;;;;;;11.00;10.50;;;;;8.09;79.42;101662.13;5078247;27;45443;-51
2022/11/27 09:08:44;;;;;;;;;13.25;11.00;;;;;8.12;79.72;101669.88;5079044;28;45314;-46
2022/11/27 09:11:10;;;;;;;;;15.00;10.25;;;;;8.13;79.92;101656.53;5079191;27;45398;-51
2022/11/27 09:13:36;;;;;;;;;14.00;11.75;;;;;8.09;80.05;101657.69;5079131;27;45219;-48
2022/11/27 09:16:03;;;;;;;;;14.00;7.50;;;;;8.10;79.70;101650.59;5078500;27;46895;-49
2022/11/27 09:18:28;;;;;;;;;13.50;9.75;;;;;8.13;79.87;101648.56;5078567;27;45375;-52
2022/11/27 09:21:00;;;;;;;;;13.25;10.00;;;;;8.13;80.04;101645.06;5078115;27;45505;-50
2022/11/27 09:23:25;;;;;;;;;10.00;9.25;;;;;8.11;79.83;101650.47;5079187;27;45389;-50
2022/11/27 09:25:51;;;;;;;;;15.25;6.00;;;;;8.12;79.86;101648.66;5078475;27;46278;-50
2022/11/27 09:28:16;;;;;;;;;13.00;7.75;;;;;8.14;80.28;101658.22;5078817;27;45405;-46
2022/11/27 09:30:42;;;;;;;;;9.00;9.00;;;;;8.09;79.57;101648.88;5078917;27;45668;-49
2022/11/27 09:33:07;;;;;;;;;9.67;9.67;;;;;8.12;79.19;101652.16;5078909;27;45342;-52
2022/11/27 09:35:32;;;;;;;;;12.33;10.00;;;;;8.12;79.65;101646.00;5078524;27;47091;-52
2022/11/27 09:37:58;;;;;;;;;13.50;10.25;;;;;8.10;79.11;101637.34;5078594;27;45227;-48
2022/11/27 09:40:23;;;;;;;;;14.33;9.00;;;;;8.13;79.35;101631.81;5078779;27;45176;-47
2022/11/27 09:43:01;;;;;;;;;12.00;8.67;;;;;8.14;78.91;101629.06;5078796;27;45361;-50
2022/11/27 09:45:27;;;;;;;;;14.25;12.25;;;;;8.14;78.51;101614.97;5078163;27;46500;-50
2022/11/27 09:47:58;;;;;;;;;8.67;8.67;;;;;8.11;79.78;101608.06;5078379;27;45419;-50
2022/11/27 09:50:27;;;;;;;;;9.33;9.00;;;;;8.12;79.79;101599.16;5078680;28;45357;-46
2022/11/27 09:53:03;;;;;;;;;13.25;10.50;;;;;8.14;79.21;101577.88;5078667;27;45379;-52
2022/11/27 09:55:42;;;;;;;;;12.00;10.33;;;;;8.13;79.50;101578.78;5078272;27;46024;-49
2022/11/27 09:58:17;;;;;;;;;14.00;7.67;;;;;8.14;79.52;101572.56;5078163;27;45322;-50
2022/11/27 10:00:44;;;;;;;;;16.33;12.33;;;;;8.03;78.94;101556.59;5078179;27;45347;-49
2022/11/27 10:03:20;;;;;;;;;13.67;10.33;;;;;8.18;78.58;101571.38;5078242;27;45351;-50
2022/11/27 10:06:07;;;;;;;;;9.33;9.00;;;;;8.20;78.62;101575.59;5078048;27;47343;-52
2022/11/27 10:08:56;;;;;;;;;10.67;9.00;;;;;8.25;78.79;101593.81;5077866;27;45571;-51
2022/11/27 10:11:30;;;;;;;;;15.33;10.67;;;;;8.26;78.48;101595.53;5078068;27;45398;-52
2022/11/27 10:14:12;;;;;;;;;15.00;13.00;;;;;8.28;78.90;101595.41;5078109;27;45224;-52
2022/11/27 10:16:57;;;;;;;;;14.00;8.67;;;;;8.20;78.76;101580.91;5077629;27;47101;-52
2022/11/27 10:19:29;;;;;;;;;13.00;9.00;;;;;8.33;78.32;101604.72;5077868;27;45410;-53
2022/11/27 10:22:17;;;;;;;;;12.67;10.67;;;;;8.32;78.28;101599.53;5077865;27;45353;-52
2022/11/27 10:24:56;;;;;;;;;8.67;7.33;;;;;8.32;77.92;101588.94;5077964;27;45404;-51
2022/11/27 10:27:43;;;;;;;;;12.33;7.33;;;;;8.31;78.79;101592.56;5077088;27;45307;-51
2022/11/27 10:30:16;;;;;;;;;13.67;11.33;;;;;8.31;78.57;101593.41;5077643;28;45376;-52
2022/11/27 10:32:45;;;;;;;;;13.33;10.00;;;;;8.33;78.28;101577.38;5077696;27;45361;-51
2022/11/27 10:35:18;;;;;;;;;9.33;9.33;;;;;8.36;77.95;101582.44;5077780;27;45248;-52
2022/11/27 10:38:20;;;;;;;;;9.67;9.33;;;;;8.38;78.98;101573.44;5077365;28;45985;-52
2022/11/27 10:41:11;;;;;;;;;17.00;10.00;;;;;8.38;78.69;101565.50;5077464;28;45365;-54
2022/11/27 10:43:37;;;;;;;;;15.00;12.00;;;;;8.41;78.65;101561.78;5077459;27;45346;-50
2022/11/27 10:46:16;;;;;;;;;17.33;13.67;;;;;8.41;78.28;101552.00;5081021;27;45480;-49
2022/11/27 10:48:42;;;;;;;;;22.50;14.25;;;;;8.47;77.75;101558.69;5097323;27;46157;-53
2022/11/27 10:51:17;;;;;;;;;16.67;12.67;;;;;8.47;78.31;101556.03;5097693;27;45280;-51
2022/11/27 10:53:47;;;;;;;;;16.67;12.33;;;;;8.52;78.39;101545.94;5097377;27;45230;-53
2022/11/27 10:56:20;;;;;;;;;19.00;13.00;;;;;8.52;77.49;101548.59;5097716;27;45542;-54
2022/11/27 10:59:05;;;;;;;;;12.00;12.00;;;;;8.52;77.60;101537.97;5097452;27;45366;-53
2022/11/27 11:01:46;;;;;;;;;13.00;12.33;;;;;8.56;78.08;101543.91;5097565;27;45359;-53
2022/11/27 11:04:14;;;;;;;;;13.00;10.67;;;;;8.57;77.58;101542.94;5097907;27;45458;-52
2022/11/27 11:06:45;;;;;;;;;16.33;12.00;;;;;8.64;78.22;101537.06;5097672;27;45399;-52
2022/11/27 11:09:28;;;;;;;;;13.33;12.00;;;;;8.67;77.27;101547.44;5097106;27;46225;-53
2022/11/27 11:12:15;;;;;;;;;14.67;11.00;;;;;8.66;77.51;101531.63;5097464;27;45493;-54
2022/11/27 11:14:49;;;;;;;;;13.67;13.33;;;;;8.73;76.99;101531.06;5097441;27;45164;-53
2022/11/27 11:17:16;;;;;;;;;22.25;17.25;;;;;8.75;76.55;101531.78;5097731;27;45196;-50
2022/11/27 11:19:42;;;;;;;;;21.33;12.00;;;;;8.80;77.25;101514.66;5097053;27;45386;-47
2022/11/27 11:22:14;;;;;;;;;18.67;14.33;;;;;8.86;77.16;101519.53;5097345;27;45272;-53
2022/11/27 11:24:48;;;;;;;;;20.00;16.33;;;;;8.92;76.89;101511.94;5097415;27;45424;-53
2022/11/27 11:27:21;;;;;;;;;18.67;13.00;;;;;8.97;76.78;101501.84;5097401;27;45430;-53
2022/11/27 11:29:49;;;;;;;;;21.67;12.67;;;;;8.93;76.68;101483.59;5096792;27;46392;-51
2022/11/27 11:32:36;;;;;;;;;11.75;8.75;;;;;8.98;76.48;101481.44;5097177;27;45345;-51
2022/11/27 11:35:08;;;;;;;;;13.33;13.33;;;;;9.04;76.17;101490.72;5097138;27;45172;-50